Time;durP1;ratioP1;P1;durP2;ratioP2;P2;SDS_P1;SDS_P2;PMS_P1;PMS_P2;Temp;Humidity;BMP_temperature;BMP_pressure;BME280_temperature;BME280_humidity;BME280_pressure;Samples;Min_cycle;Max_cycle;Signal;HPM_P1;HPM_P2
2021/10/14 00:00:47;;;;;;;;;;;;;;;;;;5039923;28;19982;-55
2021/10/14 00:03:13;;;;;;;;;;;;;;;;;;5034978;28;19982;-54
2021/10/14 00:05:38;;;;;;;;;;;;;;;;;;5033856;28;20410;-56
2021/10/14 00:08:04;;;;;;;;;;;;;;;;;;5039908;28;20026;-57
2021/10/14 00:10:30;;;;;;;;;;;;;;;;;;5040808;28;19921;-57
2021/10/14 00:12:55;;;;;;;;;;;;;;;;;;5038625;28;20343;-55
2021/10/14 00:15:21;;;;;;;;;;;;;;;;;;5038204;28;20015;-58
2021/10/14 00:17:46;;;;;;;;;;;;;;;;;;5047100;28;19913;-58
2021/10/14 00:20:12;;;;;;;;;;;;;;;;;;5042778;28;19947;-57
2021/10/14 00:22:37;;;;;;;;;;;;;;;;;;5040791;28;20350;-55
2021/10/14 00:25:03;;;;;;;;;;;;;;;;;;5040467;28;20327;-53
2021/10/14 00:27:30;;;;;;;;;;;;;;;;;;5039012;28;19931;-56
2021/10/14 00:29:55;;;;;;;;;;;;;;;;;;5039725;28;19921;-58
2021/10/14 00:32:21;;;;;;;;;;;;;;;;;;5039179;28;19999;-57
2021/10/14 00:34:46;;;;;;;;;;;;;;;;;;5044881;28;19913;-57
2021/10/14 00:37:12;;;;;;;;;;;;;;;;;;5041411;28;19917;-57
2021/10/14 00:39:37;;;;;;;;;;;;;;;;;;5037628;28;20239;-57
2021/10/14 00:42:02;;;;;;;;;;;;;;;;;;5042983;28;19925;-57
2021/10/14 00:44:40;;;;;;;;;;;;;;;;;;5039664;28;19963;-57
2021/10/14 00:47:05;;;;;;;;;;;;;;;;;;5043043;28;20508;-56
2021/10/14 00:49:30;;;;;;;;;;;;;;;;;;5043375;28;20155;-57
2021/10/14 00:51:56;;;;;;;;;;;;;;;;;;5037398;28;20399;-57
2021/10/14 00:54:21;;;;;;;;;;;;;;;;;;5039569;28;20015;-56
2021/10/14 00:56:46;;;;;;;;;;;;;;;;;;5038248;28;20276;-57
2021/10/14 00:59:13;;;;;;;;;;;;;;;;;;5035066;28;20350;-57
2021/10/14 01:01:38;;;;;;;;;;;;;;;;;;5039612;28;20513;-57
2021/10/14 01:04:04;;;;;;;;;;;;;;;;;;5041761;28;19920;-57
2021/10/14 01:06:30;;;;;;;;;;;;;;;;;;5043006;28;19928;-57
2021/10/14 01:08:55;;;;;;;;;;;;;;;;;;5038913;28;19916;-57
2021/10/14 01:11:21;;;;;;;;;;;;;;;;;;5046412;28;19921;-57
2021/10/14 01:13:46;;;;;;;;;;;;;;;;;;5036903;28;19924;-57
2021/10/14 01:16:11;;;;;;;;;;;;;;;;;;5042075;28;20380;-57
2021/10/14 01:18:37;;;;;;;;;;;;;;;;;;5034303;28;19956;-57
2021/10/14 01:21:02;;;;;;;;;;;;;;;;;;5043211;28;19921;-57
2021/10/14 01:23:27;;;;;;;;;;;;;;;;;;5039313;28;19920;-57
2021/10/14 01:25:53;;;;;;;;;;;;;;;;;;5033668;28;19921;-58
2021/10/14 01:28:18;;;;;;;;;;;;;;;;;;5041538;28;19916;-56
2021/10/14 01:30:43;;;;;;;;;;;;;;;;;;5041448;28;20194;-56
2021/10/14 01:33:10;;;;;;;;;;;;;;;;;;5040880;28;19920;-56
2021/10/14 01:35:35;;;;;;;;;;;;;;;;;;5039096;28;19920;-56
2021/10/14 01:38:01;;;;;;;;;;;;;;;;;;5038363;28;20284;-56
2021/10/14 01:40:26;;;;;;;;;;;;;;;;;;5038824;28;19921;-56
2021/10/14 01:42:51;;;;;;;;;;;;;;;;;;5036364;28;20011;-56
2021/10/14 01:45:17;;;;;;;;;;;;;;;;;;5035903;28;22202;-57
2021/10/14 01:47:42;;;;;;;;;;;;;;;;;;5038888;28;20019;-57
2021/10/14 01:50:08;;;;;;;;;;;;;;;;;;5035011;28;19919;-57
2021/10/14 01:52:34;;;;;;;;;;;;;;;;;;5039494;28;20386;-57
2021/10/14 01:54:59;;;;;;;;;;;;;;;;;;5044243;28;19920;-56
2021/10/14 01:57:24;;;;;;;;;;;;;;;;;;5050906;28;19923;-57
2021/10/14 01:59:50;;;;;;;;;;;;;;;;;;5039348;28;20323;-57
2021/10/14 02:02:15;;;;;;;;;;;;;;;;;;5036352;28;19913;-57
2021/10/14 02:04:41;;;;;;;;;;;;;;;;;;5041106;28;19917;-57
2021/10/14 02:07:06;;;;;;;;;;;;;;;;;;5044292;28;19913;-57
2021/10/14 02:09:31;;;;;;;;;;;;;;;;;;5039903;28;19999;-57
2021/10/14 02:11:57;;;;;;;;;;;;;;;;;;5034574;28;19913;-57
2021/10/14 02:14:22;;;;;;;;;;;;;;;;;;5038728;28;20499;-57
2021/10/14 02:16:47;;;;;;;;;;;;;;;;;;5036569;28;20008;-57
2021/10/14 02:19:13;;;;;;;;;;;;;;;;;;5040938;28;20424;-57
2021/10/14 02:21:38;;;;;;;;;;;;;;;;;;5038810;28;19967;-57
2021/10/14 02:24:04;;;;;;;;;;;;;;;;;;5035104;28;19916;-57
2021/10/14 02:26:29;;;;;;;;;;;;;;;;;;5035692;28;19927;-57
2021/10/14 02:28:55;;;;;;;;;;;;;;;;;;5038538;28;19923;-57
2021/10/14 02:31:20;;;;;;;;;;;;;;;;;;5036925;28;19952;-57
2021/10/14 02:33:45;;;;;;;;;;;;;;;;;;5035199;28;19971;-57
2021/10/14 02:36:11;;;;;;;;;;;;;;;;;;5041008;28;19921;-57
2021/10/14 02:38:36;;;;;;;;;;;;;;;;;;5038992;28;20416;-57
2021/10/14 02:41:02;;;;;;;;;;;;;;;;;;5040791;28;19928;-57
2021/10/14 02:43:28;;;;;;;;;;;;;;;;;;5037293;28;19920;-57
2021/10/14 02:45:53;;;;;;;;;;;;;;;;;;5043891;28;19931;-57
2021/10/14 02:48:19;;;;;;;;;;;;;;;;;;5032378;28;20114;-57
2021/10/14 02:50:44;;;;;;;;;;;;;;;;;;5040214;28;19921;-57
2021/10/14 02:53:09;;;;;;;;;;;;;;;;;;5041325;28;19925;-57
2021/10/14 02:55:35;;;;;;;;;;;;;;;;;;5041578;28;19921;-57
2021/10/14 02:58:00;;;;;;;;;;;;;;;;;;5047568;28;19920;-57
2021/10/14 03:00:25;;;;;;;;;;;;;;;;;;5033047;28;19959;-57
2021/10/14 03:02:51;;;;;;;;;;;;;;;;;;5040137;28;19913;-55
2021/10/14 03:05:16;;;;;;;;;;;;;;;;;;5042909;28;19952;-57
2021/10/14 03:07:41;;;;;;;;;;;;;;;;;;5037864;28;20460;-57
2021/10/14 03:10:07;;;;;;;;;;;;;;;;;;5042297;28;20384;-58
2021/10/14 03:12:33;;;;;;;;;;;;;;;;;;5036276;28;19982;-58
2021/10/14 03:14:58;;;;;;;;;;;;;;;;;;5041738;28;19913;-57
2021/10/14 03:17:23;;;;;;;;;;;;;;;;;;5041868;28;19959;-57
2021/10/14 03:19:49;;;;;;;;;;;;;;;;;;5039477;28;20368;-57
2021/10/14 03:22:14;;;;;;;;;;;;;;;;;;5040029;28;19917;-57
2021/10/14 03:24:39;;;;;;;;;;;;;;;;;;5041293;28;19929;-57
2021/10/14 03:27:05;;;;;;;;;;;;;;;;;;5041315;28;19921;-57
2021/10/14 03:29:30;;;;;;;;;;;;;;;;;;5032086;28;19921;-57
2021/10/14 03:31:55;;;;;;;;;;;;;;;;;;5037774;28;19931;-57
2021/10/14 03:34:21;;;;;;;;;;;;;;;;;;5037076;28;19925;-57
2021/10/14 03:36:46;;;;;;;;;;;;;;;;;;5042194;28;19960;-57
2021/10/14 03:39:11;;;;;;;;;;;;;;;;;;5036901;28;19917;-57
2021/10/14 03:41:37;;;;;;;;;;;;;;;;;;5040865;28;19916;-57
2021/10/14 03:44:02;;;;;;;;;;;;;;;;;;5038880;28;20007;-57
2021/10/14 03:46:28;;;;;;;;;;;;;;;;;;5037876;28;20169;-57
2021/10/14 03:48:53;;;;;;;;;;;;;;;;;;5038042;28;19986;-56
2021/10/14 03:51:18;;;;;;;;;;;;;;;;;;5037974;28;19959;-57
2021/10/14 03:53:44;;;;;;;;;;;;;;;;;;5040274;28;20011;-57
2021/10/14 03:56:09;;;;;;;;;;;;;;;;;;5039012;28;19924;-57
2021/10/14 03:58:34;;;;;;;;;;;;;;;;;;5032274;28;20379;-57
2021/10/14 04:01:00;;;;;;;;;;;;;;;;;;5031289;28;19927;-57
2021/10/14 04:03:25;;;;;;;;;;;;;;;;;;5036741;28;20778;-56
2021/10/14 04:05:50;;;;;;;;;;;;;;;;;;5038066;28;19924;-57
2021/10/14 04:08:16;;;;;;;;;;;;;;;;;;5035718;28;20397;-58
2021/10/14 04:10:41;;;;;;;;;;;;;;;;;;5034321;28;19974;-57
2021/10/14 04:13:06;;;;;;;;;;;;;;;;;;5033256;28;19974;-58
2021/10/14 04:15:32;;;;;;;;;;;;;;;;;;5038699;28;20365;-57
2021/10/14 04:17:57;;;;;;;;;;;;;;;;;;5040428;28;20313;-58
2021/10/14 04:20:22;;;;;;;;;;;;;;;;;;5042589;28;19919;-57
2021/10/14 04:22:48;;;;;;;;;;;;;;;;;;5034956;28;19925;-57
2021/10/14 04:25:14;;;;;;;;;;;;;;;;;;5031238;28;19920;-57
2021/10/14 04:27:39;;;;;;;;;;;;;;;;;;5043522;28;20380;-58
2021/10/14 04:30:05;;;;;;;;;;;;;;;;;;5041071;28;19927;-57
2021/10/14 04:32:31;;;;;;;;;;;;;;;;;;5041300;28;20296;-57
2021/10/14 04:34:56;;;;;;;;;;;;;;;;;;5034568;28;19929;-57
2021/10/14 04:37:21;;;;;;;;;;;;;;;;;;5034555;28;19940;-57
2021/10/14 04:39:47;;;;;;;;;;;;;;;;;;5032341;28;20052;-57
2021/10/14 04:42:12;;;;;;;;;;;;;;;;;;5036246;28;19924;-57
2021/10/14 04:44:38;;;;;;;;;;;;;;;;;;5040462;28;19924;-57
2021/10/14 04:47:04;;;;;;;;;;;;;;;;;;5035372;28;20563;-57
2021/10/14 04:49:29;;;;;;;;;;;;;;;;;;5032755;28;19913;-57
2021/10/14 04:51:56;;;;;;;;;;;;;;;;;;5036581;28;19917;-57
2021/10/14 04:54:21;;;;;;;;;;;;;;;;;;5036535;28;19921;-57
2021/10/14 04:56:47;;;;;;;;;;;;;;;;;;5031300;28;20308;-57
2021/10/14 04:59:12;;;;;;;;;;;;;;;;;;5037836;28;20011;-57
2021/10/14 05:01:37;;;;;;;;;;;;;;;;;;5034332;28;20074;-57
2021/10/14 05:04:03;;;;;;;;;;;;;;;;;;5045138;28;20200;-57
2021/10/14 05:06:28;;;;;;;;;;;;;;;;;;5039086;28;20328;-57
2021/10/14 05:08:53;;;;;;;;;;;;;;;;;;5038651;28;19919;-57
2021/10/14 05:11:19;;;;;;;;;;;;;;;;;;5036650;28;19924;-56
2021/10/14 05:13:44;;;;;;;;;;;;;;;;;;5044578;28;19925;-57
2021/10/14 05:16:10;;;;;;;;;;;;;;;;;;5037347;28;20322;-57
2021/10/14 05:18:35;;;;;;;;;;;;;;;;;;5041361;28;19920;-57
2021/10/14 05:21:00;;;;;;;;;;;;;;;;;;5040823;28;19912;-57
2021/10/14 05:23:26;;;;;;;;;;;;;;;;;;5040492;28;19955;-58
2021/10/14 05:25:51;;;;;;;;;;;;;;;;;;5037105;28;19913;-56
2021/10/14 05:28:17;;;;;;;;;;;;;;;;;;5041846;28;20359;-56
2021/10/14 05:30:42;;;;;;;;;;;;;;;;;;5043133;28;19923;-56
2021/10/14 05:33:08;;;;;;;;;;;;;;;;;;5039163;28;19921;-56
2021/10/14 05:35:33;;;;;;;;;;;;;;;;;;5045129;28;19925;-56
2021/10/14 05:37:58;;;;;;;;;;;;;;;;;;5037126;28;20011;-56
2021/10/14 05:40:24;;;;;;;;;;;;;;;;;;5052596;28;19921;-56
2021/10/14 05:42:49;;;;;;;;;;;;;;;;;;5039184;28;19917;-56
2021/10/14 05:45:14;;;;;;;;;;;;;;;;;;5037794;28;20334;-56
2021/10/14 05:47:40;;;;;;;;;;;;;;;;;;5036955;28;20442;-56
2021/10/14 05:50:06;;;;;;;;;;;;;;;;;;5037467;28;20294;-56
2021/10/14 05:52:31;;;;;;;;;;;;;;;;;;5039606;28;19940;-56
2021/10/14 05:54:59;;;;;;;;;;;;;;;;;;5042806;28;20000;-56
2021/10/14 05:57:24;;;;;;;;;;;;;;;;;;5037992;28;19917;-56
2021/10/14 05:59:50;;;;;;;;;;;;;;;;;;5032841;28;19924;-56
2021/10/14 06:02:16;;;;;;;;;;;;;;;;;;5038736;28;19951;-56
2021/10/14 06:04:42;;;;;;;;;;;;;;;;;;5034578;28;19928;-56
2021/10/14 06:07:08;;;;;;;;;;;;;;;;;;5044774;28;19917;-56
2021/10/14 06:09:33;;;;;;;;;;;;;;;;;;5056279;28;19921;-56
2021/10/14 06:11:59;;;;;;;;;;;;;;;;;;5038150;28;19927;-56
2021/10/14 06:14:24;;;;;;;;;;;;;;;;;;5038325;28;20419;-56
2021/10/14 06:16:49;;;;;;;;;;;;;;;;;;5034612;28;20261;-55
2021/10/14 06:19:15;;;;;;;;;;;;;;;;;;5037294;28;19924;-56
2021/10/14 06:21:40;;;;;;;;;;;;;;;;;;5040870;28;20407;-56
2021/10/14 06:24:05;;;;;;;;;;;;;;;;;;5041711;28;20354;-55
2021/10/14 06:26:31;;;;;;;;;;;;;;;;;;5040511;28;19975;-55
2021/10/14 06:28:56;;;;;;;;;;;;;;;;;;5036630;28;19956;-56
2021/10/14 06:31:21;;;;;;;;;;;;;;;;;;5035481;28;19966;-55
2021/10/14 06:33:47;;;;;;;;;;;;;;;;;;5049585;28;20299;-56
2021/10/14 06:36:12;;;;;;;;;;;;;;;;;;5035751;28;20415;-56
2021/10/14 06:38:37;;;;;;;;;;;;;;;;;;5036139;28;19917;-56
2021/10/14 06:41:03;;;;;;;;;;;;;;;;;;5037821;28;19939;-56
2021/10/14 06:43:28;;;;;;;;;;;;;;;;;;5036150;28;20015;-56
2021/10/14 06:45:53;;;;;;;;;;;;;;;;;;5036172;28;19959;-55
2021/10/14 06:48:19;;;;;;;;;;;;;;;;;;5033069;28;20308;-56
2021/10/14 06:50:46;;;;;;;;;;;;;;;;;;5050667;28;19916;-56
2021/10/14 06:53:11;;;;;;;;;;;;;;;;;;5049533;28;20387;-56
2021/10/14 06:55:37;;;;;;;;;;;;;;;;;;5036539;28;19979;-55
2021/10/14 06:58:07;;;;;;;;;;;;;;;;;;5031466;28;19932;-56
2021/10/14 07:00:32;;;;;;;;;;;;;;;;;;5037298;28;19975;-51
2021/10/14 07:02:58;;;;;;;;;;;;;;;;;;5033436;28;19952;-56
2021/10/14 07:05:23;;;;;;;;;;;;;;;;;;5033113;28;20275;-56
2021/10/14 07:07:49;;;;;;;;;;;;;;;;;;5039854;28;19913;-56
2021/10/14 07:10:15;;;;;;;;;;;;;;;;;;5027978;28;20391;-56
2021/10/14 07:12:41;;;;;;;;;;;;;;;;;;5030469;28;20451;-56
2021/10/14 07:15:07;;;;;;;;;;;;;;;;;;5030071;28;20007;-56
2021/10/14 07:17:33;;;;;;;;;;;;;;;;;;5037712;28;19916;-56
2021/10/14 07:19:58;;;;;;;;;;;;;;;;;;5036356;28;19943;-56
2021/10/14 07:22:23;;;;;;;;;;;;;;;;;;5044973;28;19921;-56
2021/10/14 07:24:49;;;;;;;;;;;;;;;;;;5038032;28;20015;-56
2021/10/14 07:27:14;;;;;;;;;;;;;;;;;;5035906;28;19923;-56
2021/10/14 07:29:39;;;;;;;;;;;;;;;;;;5036922;28;19913;-56
2021/10/14 07:32:06;;;;;;;;;;;;;;;;;;5042171;28;19944;-56
2021/10/14 07:34:31;;;;;;;;;;;;;;;;;;5043991;28;19917;-56
2021/10/14 07:36:57;;;;;;;;;;;;;;;;;;5038461;28;20444;-55
2021/10/14 07:39:22;;;;;;;;;;;;;;;;;;5041787;28;19916;-56
2021/10/14 07:41:47;;;;;;;;;;;;;;;;;;5035980;28;19920;-56
2021/10/14 07:44:14;;;;;;;;;;;;;;;;;;5045301;28;19964;-56
2021/10/14 07:46:39;;;;;;;;;;;;;;;;;;5030716;28;19952;-55
2021/10/14 07:49:05;;;;;;;;;;;;;;;;;;5034773;28;20405;-57
2021/10/14 07:51:30;;;;;;;;;;;;;;;;;;5030574;28;20260;-57
2021/10/14 07:53:56;;;;;;;;;;;;;;;;;;5036096;28;19979;-57
2021/10/14 07:56:21;;;;;;;;;;;;;;;;;;5036190;28;19916;-57
2021/10/14 07:58:46;;;;;;;;;;;;;;;;;;5041898;28;20371;-57
2021/10/14 08:01:12;;;;;;;;;;;;;;;;;;5030887;28;19929;-57
2021/10/14 08:03:38;;;;;;;;;;;;;;;;;;5034012;28;20338;-57
2021/10/14 08:06:03;;;;;;;;;;;;;;;;;;5031671;28;19971;-57
2021/10/14 08:08:29;;;;;;;;;;;;;;;;;;5033895;28;21340;-57
2021/10/14 08:10:54;;;;;;;;;;;;;;;;;;5035036;28;19932;-57
2021/10/14 08:13:20;;;;;;;;;;;;;;;;;;5034966;28;20336;-57
2021/10/14 08:15:52;;;;;;;;;;;;;;;;;;5035096;28;19921;-57
2021/10/14 08:18:18;;;;;;;;;;;;;;;;;;5033633;28;19913;-57
2021/10/14 08:20:44;;;;;;;;;;;;;;;;;;5035092;28;19928;-57
2021/10/14 08:23:09;;;;;;;;;;;;;;;;;;5037455;28;19938;-57
2021/10/14 08:25:35;;;;;;;;;;;;;;;;;;5044954;28;19916;-57
2021/10/14 08:28:00;;;;;;;;;;;;;;;;;;5038603;28;20386;-58
2021/10/14 08:30:25;;;;;;;;;;;;;;;;;;5041211;28;19962;-56
2021/10/14 08:32:52;;;;;;;;;;;;;;;;;;5041744;28;19967;-56
2021/10/14 08:35:18;;;;;;;;;;;;;;;;;;5034932;28;20463;-56
2021/10/14 08:37:43;;;;;;;;;;;;;;;;;;5041015;28;20027;-55
2021/10/14 08:40:09;;;;;;;;;;;;;;;;;;5036757;28;20327;-56
2021/10/14 08:42:34;;;;;;;;;;;;;;;;;;5042500;28;20438;-56
2021/10/14 08:45:08;;;;;;;;;;;;;;;;;;5040356;28;20237;-58
2021/10/14 08:47:33;;;;;;;;;;;;;;;;;;5041047;28;19939;-56
2021/10/14 08:49:59;;;;;;;;;;;;;;;;;;5042441;28;20379;-56
2021/10/14 08:52:25;;;;;;;;;;;;;;;;;;5037777;28;19917;-56
2021/10/14 08:54:50;;;;;;;;;;;;;;;;;;5041388;28;19917;-57
2021/10/14 08:57:16;;;;;;;;;;;;;;;;;;5037451;28;20314;-58
2021/10/14 08:59:41;;;;;;;;;;;;;;;;;;5040493;28;20333;-58
2021/10/14 09:02:10;;;;;;;;;;;;;;;;;;5035558;28;19916;-58
2021/10/14 09:04:38;;;;;;;;;;;;;;;;;;5034195;28;19986;-59
2021/10/14 09:07:07;;;;;;;;;;;;;;;;;;5034678;28;20431;-56
2021/10/14 09:09:37;;;;;;;;;;;;;;;;;;5042631;28;19916;-58
2021/10/14 09:12:06;;;;;;;;;;;;;;;;;;5043421;28;19913;-57
2021/10/14 09:14:32;;;;;;;;;;;;;;;;;;5038627;28;20589;-57
2021/10/14 09:16:57;;;;;;;;;;;;;;;;;;5038390;28;19917;-58
2021/10/14 09:19:23;;;;;;;;;;;;;;;;;;5044856;28;19916;-57
2021/10/14 09:21:59;;;;;;;;;;;;;;;;;;5040438;28;20373;-57
2021/10/14 09:24:26;;;;;;;;;;;;;;;;;;5042894;28;20205;-57
2021/10/14 09:26:52;;;;;;;;;;;;;;;;;;5046063;28;19920;-58
2021/10/14 09:29:19;;;;;;;;;;;;;;;;;;5042421;28;19912;-57
2021/10/14 09:31:59;;;;;;;;;;;;;;;;;;5041050;28;19944;-56
2021/10/14 09:34:44;;;;;;;;;;;;;;;;;;5043696;28;19920;-57
2021/10/14 09:37:16;;;;;;;;;;;;;;;;;;5040064;28;19918;-57
2021/10/14 09:39:54;;;;;;;;;;;;;;;;;;5042727;28;19998;-57
2021/10/14 09:42:37;;;;;;;;;;;;;;;;;;5038644;28;19991;-57
2021/10/14 09:45:15;;;;;;;;;;;;;;;;;;5037237;28;19909;-57
2021/10/14 09:47:46;;;;;;;;;;;;;;;;;;5034387;28;19913;-58
2021/10/14 09:50:11;;;;;;;;;;;;;;;;;;5038169;28;20434;-57
2021/10/14 09:52:37;;;;;;;;;;;;;;;;;;5033382;28;20007;-57
2021/10/14 09:55:02;;;;;;;;;;;;;;;;;;5040064;28;20425;-57
2021/10/14 09:57:27;;;;;;;;;;;;;;;;;;5041507;28;19913;-57
2021/10/14 09:59:53;;;;;;;;;;;;;;;;;;5043042;28;19944;-56
2021/10/14 10:02:18;;;;;;;;;;;;;;;;;;5036479;28;19966;-56
2021/10/14 10:04:44;;;;;;;;;;;;;;;;;;5038420;28;19929;-57
2021/10/14 10:07:10;;;;;;;;;;;;;;;;;;5037382;28;19920;-58
2021/10/14 10:09:37;;;;;;;;;;;;;;;;;;5036166;28;19928;-58
2021/10/14 10:12:05;;;;;;;;;;;;;;;;;;5041744;28;19908;-58
2021/10/14 10:14:31;;;;;;;;;;;;;;;;;;5037871;28;19917;-58
2021/10/14 10:17:01;;;;;;;;;;;;;;;;;;5035081;28;19923;-58
2021/10/14 10:19:48;;;;;;;;;;;;;;;;;;5032908;28;19916;-58
2021/10/14 10:22:32;;;;;;;;;;;;;;;;;;5039472;28;19916;-58
2021/10/14 10:24:58;;;;;;;;;;;;;;;;;;5035470;28;20007;-58
2021/10/14 10:27:33;;;;;;;;;;;;;;;;;;5032332;28;20495;-58
2021/10/14 10:29:59;;;;;;;;;;;;;;;;;;5032872;28;19940;-58
2021/10/14 10:32:24;;;;;;;;;;;;;;;;;;5036395;28;19916;-58
2021/10/14 10:34:59;;;;;;;;;;;;;;;;;;5039100;28;19932;-58
2021/10/14 10:39:55;;;;;;;;;;;;;;;;;;5045631;28;19917;-58
2021/10/14 10:42:23;;;;;;;;;;;;;;;;;;5040335;28;20295;-59
2021/10/14 10:44:49;;;;;;;;;;;;;;;;;;5045079;28;19919;-59
2021/10/14 10:47:33;;;;;;;;;;;;;;;;;;5041019;28;19917;-59
2021/10/14 10:49:58;;;;;;;;;;;;;;;;;;5041285;28;19975;-59
2021/10/14 10:52:31;;;;;;;;;;;;;;;;;;5044553;28;19920;-58
2021/10/14 10:54:58;;;;;;;;;;;;;;;;;;5043667;28;20343;-58
2021/10/14 10:57:42;;;;;;;;;;;;;;;;;;5043043;28;19997;-58
2021/10/14 11:00:08;;;;;;;;;;;;;;;;;;5040799;28;19916;-59
2021/10/14 11:02:33;;;;;;;;;;;;;;;;;;5037729;28;19913;-59
2021/10/14 11:05:00;;;;;;;;;;;;;;;;;;5037485;28;19925;-58
2021/10/14 11:07:25;;;;;;;;;;;;;;;;;;5041606;28;19920;-58
2021/10/14 11:09:50;;;;;;;;;;;;;;;;;;5035733;28;19924;-58
2021/10/14 11:12:17;;;;;;;;;;;;;;;;;;5035165;28;20376;-58
2021/10/14 11:14:42;;;;;;;;;;;;;;;;;;5035869;28;20380;-58
2021/10/14 11:17:11;;;;;;;;;;;;;;;;;;5034656;28;19967;-58
2021/10/14 11:19:39;;;;;;;;;;;;;;;;;;5041048;28;19917;-58
2021/10/14 11:22:11;;;;;;;;;;;;;;;;;;5042599;28;20452;-59
2021/10/14 11:24:44;;;;;;;;;;;;;;;;;;5040048;28;19920;-59
2021/10/14 11:27:16;;;;;;;;;;;;;;;;;;5039725;28;19924;-58
2021/10/14 11:29:43;;;;;;;;;;;;;;;;;;5032376;28;20047;-58
2021/10/14 11:32:13;;;;;;;;;;;;;;;;;;5031078;28;20379;-58
2021/10/14 11:34:40;;;;;;;;;;;;;;;;;;5056381;28;19921;-58
2021/10/14 11:37:12;;;;;;;;;;;;;;;;;;5038551;28;19921;-58
2021/10/14 11:39:41;;;;;;;;;;;;;;;;;;5040479;28;20378;-58
2021/10/14 11:42:10;;;;;;;;;;;;;;;;;;5034701;28;19927;-58
2021/10/14 11:44:37;;;;;;;;;;;;;;;;;;5046530;28;19916;-58
2021/10/14 11:47:05;;;;;;;;;;;;;;;;;;5038443;28;19912;-59
2021/10/14 11:49:31;;;;;;;;;;;;;;;;;;5036543;28;19927;-58
2021/10/14 11:52:09;;;;;;;;;;;;;;;;;;5032418;28;19921;-58
2021/10/14 11:54:35;;;;;;;;;;;;;;;;;;5037120;28;19932;-59
2021/10/14 11:57:01;;;;;;;;;;;;;;;;;;5034679;28;20299;-59
2021/10/14 11:59:30;;;;;;;;;;;;;;;;;;5038709;28;19912;-58
2021/10/14 12:01:56;;;;;;;;;;;;;;;;;;5039618;28;19962;-58
2021/10/14 12:04:28;;;;;;;;;;;;;;;;;;5040429;28;19920;-59
2021/10/14 12:06:54;;;;;;;;;;;;;;;;;;5039359;28;19920;-59
2021/10/14 12:09:21;;;;;;;;;;;;;;;;;;5034366;28;19920;-58
2021/10/14 12:11:46;;;;;;;;;;;;;;;;;;5032109;28;19913;-58
2021/10/14 12:14:21;;;;;;;;;;;;;;;;;;5039052;28;19921;-58
2021/10/14 12:17:03;;;;;;;;;;;;;;;;;;5043643;28;20363;-58
2021/10/14 12:19:35;;;;;;;;;;;;;;;;;;5044300;28;19924;-58
2021/10/14 12:22:04;;;;;;;;;;;;;;;;;;5037272;28;19917;-58
2021/10/14 12:24:31;;;;;;;;;;;;;;;;;;5039492;28;19967;-58
2021/10/14 12:26:57;;;;;;;;;;;;;;;;;;5042838;28;19921;-58
2021/10/14 12:29:24;;;;;;;;;;;;;;;;;;5042129;28;19969;-58
2021/10/14 12:32:01;;;;;;;;;;;;;;;;;;5039368;28;19913;-58
2021/10/14 12:34:26;;;;;;;;;;;;;;;;;;5042980;28;20060;-58
2021/10/14 12:36:52;;;;;;;;;;;;;;;;;;5039678;28;20391;-59
2021/10/14 12:39:20;;;;;;;;;;;;;;;;;;5043295;28;19924;-58
2021/10/14 12:41:53;;;;;;;;;;;;;;;;;;5040373;28;20337;-58
2021/10/14 12:44:19;;;;;;;;;;;;;;;;;;5044059;28;20042;-58
2021/10/14 12:46:57;;;;;;;;;;;;;;;;;;5041133;28;19931;-58
2021/10/14 12:50:01;;;;;;;;;;;;;;;;;;5048406;28;19928;-59
2021/10/14 12:52:18;;;;;;;;;;;;;;;;;;5041491;28;19963;-58
2021/10/14 12:54:44;;;;;;;;;;;;;;;;;;5038465;28;20330;-58
2021/10/14 12:57:10;;;;;;;;;;;;;;;;;;5038547;28;19912;-58
2021/10/14 12:59:38;;;;;;;;;;;;;;;;;;5042457;28;20422;-58
2021/10/14 13:02:04;;;;;;;;;;;;;;;;;;5044229;28;19917;-58
2021/10/14 13:04:30;;;;;;;;;;;;;;;;;;5035205;28;19917;-58
2021/10/14 13:06:55;;;;;;;;;;;;;;;;;;5038187;28;19916;-58
2021/10/14 13:09:23;;;;;;;;;;;;;;;;;;5041212;28;19979;-59
2021/10/14 13:11:49;;;;;;;;;;;;;;;;;;5040497;28;19912;-58
2021/10/14 13:14:14;;;;;;;;;;;;;;;;;;5040400;28;20406;-58
2021/10/14 13:16:40;;;;;;;;;;;;;;;;;;5047004;28;20592;-59
2021/10/14 13:19:06;;;;;;;;;;;;;;;;;;5042991;28;19916;-58
2021/10/14 13:21:32;;;;;;;;;;;;;;;;;;5039118;28;19923;-58
2021/10/14 13:23:57;;;;;;;;;;;;;;;;;;5031765;28;19920;-58
2021/10/14 13:26:24;;;;;;;;;;;;;;;;;;5042558;28;19913;-58
2021/10/14 13:28:49;;;;;;;;;;;;;;;;;;5045229;28;19932;-58
2021/10/14 13:31:15;;;;;;;;;;;;;;;;;;5043063;28;20375;-57
2021/10/14 13:33:41;;;;;;;;;;;;;;;;;;5038471;28;19917;-58
2021/10/14 13:36:15;;;;;;;;;;;;;;;;;;5057276;28;19990;-58
2021/10/14 13:38:44;;;;;;;;;;;;;;;;;;5038541;28;20349;-58
2021/10/14 13:41:12;;;;;;;;;;;;;;;;;;5031981;28;19913;-56
2021/10/14 13:44:01;;;;;;;;;;;;;;;;;;5040663;28;20175;-58
2021/10/14 13:46:26;;;;;;;;;;;;;;;;;;5035836;28;20228;-58
2021/10/14 13:48:51;;;;;;;;;;;;;;;;;;5040958;28;20295;-58
2021/10/14 13:51:16;;;;;;;;;;;;;;;;;;5042900;28;20380;-58
2021/10/14 13:53:42;;;;;;;;;;;;;;;;;;5040123;28;19943;-58
2021/10/14 13:56:07;;;;;;;;;;;;;;;;;;5038145;28;19909;-59
2021/10/14 13:58:33;;;;;;;;;;;;;;;;;;5037955;28;20399;-58
2021/10/14 14:00:58;;;;;;;;;;;;;;;;;;5037672;28;19970;-58
2021/10/14 14:03:23;;;;;;;;;;;;;;;;;;5038314;28;19925;-58
2021/10/14 14:05:50;;;;;;;;;;;;;;;;;;5040509;28;19931;-59
2021/10/14 14:08:16;;;;;;;;;;;;;;;;;;5033318;28;20379;-58
2021/10/14 14:10:42;;;;;;;;;;;;;;;;;;5039318;28;20007;-58
2021/10/14 14:13:07;;;;;;;;;;;;;;;;;;5037275;28;20427;-58
2021/10/14 14:15:34;;;;;;;;;;;;;;;;;;5035236;28;19913;-58
2021/10/14 14:18:00;;;;;;;;;;;;;;;;;;5036507;28;19913;-58
2021/10/14 14:20:26;;;;;;;;;;;;;;;;;;5039435;28;20277;-59
2021/10/14 14:22:51;;;;;;;;;;;;;;;;;;5035089;28;20257;-58
2021/10/14 14:25:17;;;;;;;;;;;;;;;;;;5033612;28;19919;-58
2021/10/14 14:27:42;;;;;;;;;;;;;;;;;;5041344;28;19932;-58
2021/10/14 14:30:08;;;;;;;;;;;;;;;;;;5034052;28;19913;-58
2021/10/14 14:32:33;;;;;;;;;;;;;;;;;;5034594;28;19932;-57
2021/10/14 14:34:59;;;;;;;;;;;;;;;;;;5030620;28;19932;-58
2021/10/14 14:37:25;;;;;;;;;;;;;;;;;;5040520;28;19921;-58
2021/10/14 14:39:50;;;;;;;;;;;;;;;;;;5039227;28;20027;-57
2021/10/14 14:42:16;;;;;;;;;;;;;;;;;;5038185;28;20438;-59
2021/10/14 14:44:41;;;;;;;;;;;;;;;;;;5038028;28;19917;-58
2021/10/14 14:47:07;;;;;;;;;;;;;;;;;;5036707;28;19966;-58
2021/10/14 14:49:32;;;;;;;;;;;;;;;;;;5035835;28;20007;-58
2021/10/14 14:51:58;;;;;;;;;;;;;;;;;;5039258;28;20039;-58
2021/10/14 14:54:23;;;;;;;;;;;;;;;;;;5037832;28;20359;-58
2021/10/14 14:56:48;;;;;;;;;;;;;;;;;;5041776;28;19964;-58
2021/10/14 14:59:14;;;;;;;;;;;;;;;;;;5044957;28;19980;-58
2021/10/14 15:01:41;;;;;;;;;;;;;;;;;;5039711;28;19917;-58
2021/10/14 15:04:06;;;;;;;;;;;;;;;;;;5035836;28;19916;-58
2021/10/14 15:06:32;;;;;;;;;;;;;;;;;;5037609;28;20008;-58
2021/10/14 15:08:58;;;;;;;;;;;;;;;;;;5038115;28;19913;-58
2021/10/14 15:11:23;;;;;;;;;;;;;;;;;;5033710;28;19912;-58
2021/10/14 15:13:49;;;;;;;;;;;;;;;;;;5037509;28;19916;-59
2021/10/14 15:16:15;;;;;;;;;;;;;;;;;;5041287;28;19978;-58
2021/10/14 15:18:41;;;;;;;;;;;;;;;;;;5040029;28;20421;-58
2021/10/14 15:21:07;;;;;;;;;;;;;;;;;;5039324;28;19944;-58
2021/10/14 15:23:33;;;;;;;;;;;;;;;;;;5039625;28;20371;-58
2021/10/14 15:25:58;;;;;;;;;;;;;;;;;;5035514;28;19935;-58
2021/10/14 15:28:23;;;;;;;;;;;;;;;;;;5034931;28;19921;-58
2021/10/14 15:30:49;;;;;;;;;;;;;;;;;;5039624;28;19970;-58
2021/10/14 15:33:14;;;;;;;;;;;;;;;;;;5034665;28;19921;-58
2021/10/14 15:35:40;;;;;;;;;;;;;;;;;;5035295;28;19995;-58
2021/10/14 15:38:06;;;;;;;;;;;;;;;;;;5040016;28;20028;-58
2021/10/14 15:40:32;;;;;;;;;;;;;;;;;;5034915;28;19917;-58
2021/10/14 15:42:57;;;;;;;;;;;;;;;;;;5038671;28;19931;-58
2021/10/14 15:45:23;;;;;;;;;;;;;;;;;;5038342;28;19913;-58
2021/10/14 15:47:48;;;;;;;;;;;;;;;;;;5030380;28;19948;-58
2021/10/14 15:50:14;;;;;;;;;;;;;;;;;;5030225;28;20233;-58
2021/10/14 15:52:39;;;;;;;;;;;;;;;;;;5034997;28;19924;-57
2021/10/14 15:55:05;;;;;;;;;;;;;;;;;;5035672;28;20240;-58
2021/10/14 15:57:30;;;;;;;;;;;;;;;;;;5037599;28;19913;-58
2021/10/14 15:59:56;;;;;;;;;;;;;;;;;;5047868;28;20198;-57
2021/10/14 16:02:21;;;;;;;;;;;;;;;;;;5034978;28;19978;-58
2021/10/14 16:04:47;;;;;;;;;;;;;;;;;;5031569;28;19917;-59
2021/10/14 16:07:13;;;;;;;;;;;;;;;;;;5038778;28;20369;-58
2021/10/14 16:09:38;;;;;;;;;;;;;;;;;;5036830;28;19999;-58
2021/10/14 16:12:04;;;;;;;;;;;;;;;;;;5031878;28;20158;-58
2021/10/14 16:14:29;;;;;;;;;;;;;;;;;;5035832;28;19920;-58
2021/10/14 16:16:55;;;;;;;;;;;;;;;;;;5037655;28;20288;-58
2021/10/14 16:19:21;;;;;;;;;;;;;;;;;;5038254;28;19920;-58
2021/10/14 16:21:46;;;;;;;;;;;;;;;;;;5043367;28;19919;-58
2021/10/14 16:24:12;;;;;;;;;;;;;;;;;;5034270;28;19909;-58
2021/10/14 16:26:40;;;;;;;;;;;;;;;;;;5043168;28;19917;-58
2021/10/14 16:29:06;;;;;;;;;;;;;;;;;;5035952;28;20182;-58
2021/10/14 16:31:32;;;;;;;;;;;;;;;;;;5037325;28;20394;-58
2021/10/14 16:34:09;;;;;;;;;;;;;;;;;;5038728;28;20232;-58
2021/10/14 16:36:35;;;;;;;;;;;;;;;;;;5035271;28;19923;-58
2021/10/14 16:39:01;;;;;;;;;;;;;;;;;;5044466;28;19908;-58
2021/10/14 16:41:26;;;;;;;;;;;;;;;;;;5038139;28;19965;-58
2021/10/14 16:43:51;;;;;;;;;;;;;;;;;;5047847;28;19970;-58